Time;durP1;ratioP1;P1;durP2;ratioP2;P2;SDS_P1;SDS_P2;PMS_P1;PMS_P2;Temp;Humidity;BMP_temperature;BMP_pressure;BME280_temperature;BME280_humidity;BME280_pressure;Samples;Min_cycle;Max_cycle;Signal;HPM_P1;HPM_P2
2021/05/28 00:02:03;;;;;;;22.02;6.88;;;10.90;78.30;;;;;;5011688;28;20018;-65
2021/05/28 00:04:29;;;;;;;19.85;7.28;;;10.90;78.30;;;;;;5011835;28;20472;-65
2021/05/28 00:06:55;;;;;;;17.75;7.93;;;10.90;78.30;;;;;;5011799;28;20033;-65
2021/05/28 00:09:20;;;;;;;16.58;7.40;;;10.90;78.10;;;;;;5011551;28;20022;-66
2021/05/28 00:11:46;;;;;;;18.95;8.07;;;11.00;78.20;;;;;;5011666;28;20029;-65
2021/05/28 00:14:11;;;;;;;17.35;7.95;;;10.90;78.00;;;;;;5011852;28;20026;-64
2021/05/28 00:16:37;;;;;;;20.52;8.20;;;11.00;78.00;;;;;;5011309;28;20028;-63
2021/05/28 00:19:03;;;;;;;14.80;6.70;;;10.90;78.00;;;;;;5011191;28;20057;-63
2021/05/28 00:21:29;;;;;;;17.48;8.32;;;11.00;77.90;;;;;;5011581;28;20032;-64
2021/05/28 00:23:54;;;;;;;15.82;8.05;;;10.90;78.00;;;;;;4994010;28;20026;-64
2021/05/28 00:26:20;;;;;;;20.48;8.15;;;10.90;78.00;;;;;;5011258;28;20026;-64
2021/05/28 00:28:49;;;;;;;16.65;7.82;;;10.90;78.00;;;;;;4993660;28;20033;-65
2021/05/28 00:31:18;;;;;;;18.77;7.72;;;10.90;78.00;;;;;;5011406;28;20025;-63
2021/05/28 00:33:44;;;;;;;16.50;8.00;;;10.90;78.20;;;;;;5011511;28;20029;-63
2021/05/28 00:36:09;;;;;;;17.30;8.40;;;10.80;78.30;;;;;;5010865;28;20030;-63
2021/05/28 00:38:35;;;;;;;17.98;8.95;;;10.80;78.50;;;;;;5010890;28;20052;-63
2021/05/28 00:41:00;;;;;;;16.40;8.27;;;10.80;78.70;;;;;;5010560;28;20050;-64
2021/05/28 00:43:26;;;;;;;19.10;8.88;;;10.80;78.60;;;;;;4993574;28;20026;-63
2021/05/28 00:45:51;;;;;;;19.30;8.85;;;10.80;78.50;;;;;;5010738;28;20029;-63
2021/05/28 00:48:17;;;;;;;14.73;8.35;;;10.80;78.90;;;;;;5010413;28;20025;-64
2021/05/28 00:50:43;;;;;;;16.13;7.97;;;10.80;78.80;;;;;;5010392;28;20036;-63
2021/05/28 00:53:08;;;;;;;15.95;8.77;;;10.70;78.60;;;;;;5010194;28;20535;-63
2021/05/28 00:55:34;;;;;;;18.55;8.43;;;10.70;78.50;;;;;;4976621;28;20483;-64
2021/05/28 00:57:59;;;;;;;24.52;8.75;;;10.70;78.70;;;;;;4993000;28;20025;-64
2021/05/28 01:00:26;;;;;;;21.80;8.50;;;10.60;78.90;;;;;;4976893;28;20033;-64
2021/05/28 01:02:52;;;;;;;14.32;9.23;;;10.50;79.10;;;;;;5010437;28;20041;-64
2021/05/28 01:05:18;;;;;;;17.33;8.77;;;10.50;79.50;;;;;;5010306;28;20026;-64
2021/05/28 01:07:44;;;;;;;24.20;9.10;;;10.40;79.60;;;;;;5010495;28;20037;-64
2021/05/28 01:10:11;;;;;;;25.45;9.02;;;10.40;79.90;;;;;;5010381;28;20022;-64
2021/05/28 01:12:36;;;;;;;21.50;9.57;;;10.30;80.10;;;;;;5010454;28;20026;-64
2021/05/28 01:15:02;;;;;;;26.13;10.23;;;10.30;80.30;;;;;;5010457;28;20026;-64
2021/05/28 01:17:28;;;;;;;20.50;9.52;;;10.20;80.60;;;;;;5010586;28;20029;-64
2021/05/28 01:19:54;;;;;;;21.35;9.93;;;10.20;80.80;;;;;;5010336;28;20022;-64
2021/05/28 01:22:19;;;;;;;19.08;10.15;;;10.20;80.90;;;;;;4992659;28;20229;-64
2021/05/28 01:24:48;;;;;;;22.80;10.68;;;10.10;81.00;;;;;;5010389;28;20396;-64
2021/05/28 01:27:14;;;;;;;20.23;10.75;;;10.10;81.20;;;;;;4993328;28;20068;-64
2021/05/28 01:29:39;;;;;;;17.95;10.57;;;10.00;81.70;;;;;;5010138;28;20497;-64
2021/05/28 01:32:05;;;;;;;18.35;9.88;;;10.00;81.70;;;;;;5010072;28;20377;-64
2021/05/28 01:34:30;;;;;;;21.02;11.57;;;9.90;82.00;;;;;;5010221;28;20100;-64
2021/05/28 01:36:56;;;;;;;23.70;10.57;;;9.90;82.10;;;;;;5010478;28;20050;-63
2021/05/28 01:39:22;;;;;;;28.55;11.43;;;9.90;82.10;;;;;;5023682;28;20046;-64
2021/05/28 01:41:47;;;;;;;22.23;10.30;;;9.90;82.50;;;;;;5029741;28;20029;-64
2021/05/28 01:44:13;;;;;;;21.13;11.30;;;9.80;82.50;;;;;;5030059;28;20040;-64
2021/05/28 01:46:38;;;;;;;22.88;9.60;;;9.80;82.50;;;;;;4994798;28;20033;-65
2021/05/28 01:49:04;;;;;;;20.55;10.48;;;9.80;82.50;;;;;;5029475;28;20116;-64
2021/05/28 01:51:31;;;;;;;24.88;11.02;;;9.80;82.70;;;;;;5029616;28;20375;-64
2021/05/28 01:53:57;;;;;;;24.33;11.10;;;9.70;83.00;;;;;;5029893;28;20040;-64
2021/05/28 01:56:24;;;;;;;24.15;12.27;;;9.70;83.20;;;;;;5029503;28;20017;-64
2021/05/28 01:58:49;;;;;;;26.10;11.93;;;9.70;83.30;;;;;;5029431;28;20037;-64
2021/05/28 02:01:15;;;;;;;23.67;10.73;;;9.60;83.30;;;;;;5011794;28;20586;-64
2021/05/28 02:03:40;;;;;;;26.80;11.77;;;9.60;83.50;;;;;;5029542;28;20030;-65
2021/05/28 02:06:06;;;;;;;23.83;11.93;;;9.60;83.60;;;;;;5029364;28;20032;-65
2021/05/28 02:08:31;;;;;;;21.00;11.00;;;9.50;83.60;;;;;;5029204;28;20065;-64
2021/05/28 02:10:57;;;;;;;22.30;11.23;;;9.50;83.50;;;;;;5029744;28;20030;-65
2021/05/28 02:13:22;;;;;;;21.35;11.63;;;9.50;83.50;;;;;;5029155;28;20049;-64
2021/05/28 02:15:48;;;;;;;23.38;11.77;;;9.40;83.50;;;;;;5029211;28;20025;-64
2021/05/28 02:18:13;;;;;;;22.02;11.35;;;9.40;83.50;;;;;;5029383;28;20027;-65
2021/05/28 02:20:39;;;;;;;27.55;12.15;;;9.40;83.80;;;;;;5011831;28;20029;-65
2021/05/28 02:23:04;;;;;;;25.13;13.05;;;9.40;83.90;;;;;;5029220;28;20038;-65
2021/05/28 02:25:30;;;;;;;27.85;12.25;;;9.40;84.10;;;;;;5029406;28;20422;-65
2021/05/28 02:27:55;;;;;;;34.42;14.27;;;9.40;83.90;;;;;;5029476;28;20036;-66
2021/05/28 02:30:21;;;;;;;26.90;13.82;;;9.40;84.00;;;;;;5028970;28;20112;-66
2021/05/28 02:32:47;;;;;;;24.60;13.30;;;9.30;84.20;;;;;;5029098;28;20028;-66
2021/05/28 02:35:12;;;;;;;25.40;13.95;;;9.30;84.30;;;;;;5029513;28;20453;-65
2021/05/28 02:37:38;;;;;;;31.92;14.45;;;9.30;84.70;;;;;;5029100;28;20519;-66
2021/05/28 02:40:04;;;;;;;23.38;13.38;;;9.30;84.50;;;;;;5028865;28;20503;-63
2021/05/28 02:42:30;;;;;;;27.92;14.13;;;9.30;84.90;;;;;;5029107;28;20029;-65
2021/05/28 02:44:55;;;;;;;30.35;15.23;;;9.20;84.60;;;;;;5029193;28;20040;-65
2021/05/28 02:47:21;;;;;;;28.35;14.10;;;9.20;85.00;;;;;;5028955;28;20037;-65
2021/05/28 02:49:50;;;;;;;25.48;13.63;;;9.20;85.30;;;;;;5028866;28;20427;-65
2021/05/28 02:52:15;;;;;;;26.10;13.57;;;9.10;84.60;;;;;;5029110;28;20032;-65
2021/05/28 02:54:42;;;;;;;28.67;15.05;;;9.10;84.80;;;;;;5029312;28;20021;-65
2021/05/28 02:57:08;;;;;;;27.02;14.75;;;9.10;85.30;;;;;;5028877;28;20376;-66
2021/05/28 02:59:33;;;;;;;30.55;14.60;;;9.10;85.50;;;;;;5032112;28;20025;-65
2021/05/28 03:01:59;;;;;;;32.25;15.02;;;9.10;86.10;;;;;;5032805;28;20021;-65
2021/05/28 03:04:24;;;;;;;24.92;14.20;;;9.10;85.90;;;;;;5032625;28;20430;-63
2021/05/28 03:06:50;;;;;;;22.50;13.68;;;9.10;85.80;;;;;;5032486;28;20033;-65
2021/05/28 03:09:15;;;;;;;36.80;15.45;;;9.10;85.80;;;;;;5032636;28;20383;-65
2021/05/28 03:11:41;;;;;;;31.67;14.80;;;9.10;85.80;;;;;;5015183;28;20499;-65
2021/05/28 03:14:06;;;;;;;29.20;15.48;;;9.10;85.60;;;;;;5032371;28;20108;-65
2021/05/28 03:16:35;;;;;;;30.88;15.55;;;9.10;85.70;;;;;;5032309;28;20387;-65
2021/05/28 03:19:03;;;;;;;29.75;15.88;;;9.00;85.70;;;;;;5032319;28;20036;-65
2021/05/28 03:23:58;;;;;;;34.85;15.98;;;9.00;86.00;;;;;;5032664;28;20034;-65
2021/05/28 03:26:24;;;;;;;30.33;17.30;;;9.00;86.00;;;;;;5032091;28;20495;-65
2021/05/28 03:28:50;;;;;;;39.40;16.38;;;9.00;86.10;;;;;;5032102;28;20071;-64
2021/05/28 03:31:16;;;;;;;41.30;17.80;;;9.00;86.00;;;;;;5032220;28;20028;-65
2021/05/28 03:33:41;;;;;;;34.53;16.17;;;9.00;86.30;;;;;;5014729;28;20468;-65
2021/05/28 03:36:07;;;;;;;29.60;17.67;;;8.90;85.70;;;;;;5032091;28;20096;-65
2021/05/28 03:38:33;;;;;;;32.50;18.88;;;8.90;86.10;;;;;;5031913;28;20024;-65
2021/05/28 03:40:59;;;;;;;40.72;19.23;;;8.90;86.30;;;;;;5031976;28;20045;-65
2021/05/28 03:43:25;;;;;;;36.63;20.38;;;8.90;86.30;;;;;;5031997;28;20072;-65
2021/05/28 03:45:50;;;;;;;28.98;16.80;;;8.90;87.00;;;;;;5031028;28;20036;-65
2021/05/28 03:48:16;;;;;;;36.53;19.38;;;8.90;86.40;;;;;;5031936;28;20021;-65
2021/05/28 03:50:41;;;;;;;37.47;17.85;;;8.90;86.50;;;;;;5032064;28;20013;-66
2021/05/28 03:53:07;;;;;;;27.05;18.17;;;9.00;86.20;;;;;;5031697;28;20021;-66
2021/05/28 03:55:33;;;;;;;34.30;18.60;;;9.00;86.10;;;;;;5031557;28;20044;-66
2021/05/28 03:57:58;;;;;;;29.50;16.75;;;9.00;86.40;;;;;;5031927;28;20025;-66
2021/05/28 04:00:25;;;;;;;38.05;17.88;;;9.10;86.20;;;;;;5031822;28;20029;-66
2021/05/28 04:02:51;;;;;;;38.45;18.02;;;9.20;86.10;;;;;;5031641;28;20071;-66
2021/05/28 04:05:16;;;;;;;40.80;17.98;;;9.30;86.10;;;;;;5031440;28;20029;-66
2021/05/28 04:07:42;;;;;;;34.58;18.10;;;9.40;85.90;;;;;;5031765;28;20033;-66
2021/05/28 04:10:08;;;;;;;33.15;17.08;;;9.40;85.80;;;;;;5029860;28;20444;-66
2021/05/28 04:12:33;;;;;;;34.65;16.70;;;9.50;85.50;;;;;;5031337;28;20032;-68
2021/05/28 04:14:59;;;;;;;34.22;17.48;;;9.60;85.20;;;;;;5027339;28;20018;-67
2021/05/28 04:17:25;;;;;;;33.65;17.55;;;9.70;84.90;;;;;;5015035;28;20025;-59
2021/05/28 04:19:50;;;;;;;28.52;16.60;;;9.70;84.60;;;;;;5024505;28;20068;-59
2021/05/28 04:22:16;;;;;;;31.98;16.42;;;9.70;84.50;;;;;;5011335;28;20092;-59
2021/05/28 04:24:41;;;;;;;29.77;16.77;;;9.70;84.10;;;;;;5011553;28;20018;-58
2021/05/28 04:27:07;;;;;;;32.25;15.55;;;9.80;84.20;;;;;;5011091;28;20113;-59
2021/05/28 04:29:32;;;;;;;34.80;16.80;;;9.80;84.10;;;;;;5019354;28;20022;-59
2021/05/28 04:31:58;;;;;;;34.20;17.60;;;9.80;83.90;;;;;;5029236;28;20028;-68
2021/05/28 04:34:24;;;;;;;33.13;18.95;;;9.90;83.80;;;;;;5015318;28;20025;-59
2021/05/28 04:36:49;;;;;;;33.85;19.92;;;9.90;83.80;;;;;;5021271;28;20562;-58
2021/05/28 04:39:15;;;;;;;36.90;21.98;;;9.90;83.60;;;;;;5019566;28;20120;-60
2021/05/28 04:41:40;;;;;;;51.95;25.95;;;9.90;83.40;;;;;;5018515;28;20116;-58
2021/05/28 04:44:06;;;;;;;61.17;30.67;;;9.90;83.60;;;;;;5026339;28;20056;-58
2021/05/28 04:46:32;;;;;;;70.63;34.42;;;9.90;83.60;;;;;;5023745;28;20055;-58
2021/05/28 04:48:57;;;;;;;58.08;34.20;;;9.90;83.60;;;;;;5026134;28;20029;-58
2021/05/28 04:51:23;;;;;;;59.78;31.85;;;9.90;83.70;;;;;;5027503;28;20056;-58
2021/05/28 04:53:49;;;;;;;66.30;32.95;;;9.80;83.30;;;;;;5028557;28;20033;-59
2021/05/28 04:56:15;;;;;;;60.80;34.15;;;9.80;83.70;;;;;;5018246;28;20029;-59
2021/05/28 04:58:41;;;;;;;67.30;34.22;;;9.80;83.80;;;;;;5020710;28;20035;-58
2021/05/28 05:01:07;;;;;;;68.20;34.67;;;9.80;84.30;;;;;;5019998;28;20443;-58
2021/05/28 05:03:32;;;;;;;65.93;34.83;;;9.80;83.70;;;;;;5030051;28;20091;-58
2021/05/28 05:05:58;;;;;;;67.25;35.17;;;9.80;83.50;;;;;;5024342;28;20105;-60
2021/05/28 05:08:23;;;;;;;66.47;33.25;;;9.90;83.40;;;;;;5024160;28;20049;-60
2021/05/28 05:10:49;;;;;;;65.22;34.03;;;10.00;82.90;;;;;;5030037;28;20725;-58
2021/05/28 05:13:15;;;;;;;73.35;34.50;;;9.90;82.40;;;;;;5029223;28;20105;-59
2021/05/28 05:15:40;;;;;;;73.63;35.20;;;9.90;82.50;;;;;;4991974;28;20014;-59
2021/05/28 05:18:06;;;;;;;73.13;35.10;;;9.90;82.70;;;;;;5028923;28;20101;-58
2021/05/28 05:20:33;;;;;;;70.82;34.90;;;10.10;82.70;;;;;;5028872;28;20056;-59
2021/05/28 05:22:58;;;;;;;64.68;33.35;;;10.30;82.20;;;;;;5029232;28;20040;-57
2021/05/28 05:25:24;;;;;;;67.13;34.60;;;10.50;81.20;;;;;;5029219;28;20384;-59
2021/05/28 05:27:49;;;;;;;72.68;35.20;;;10.50;80.10;;;;;;5028828;28;20029;-58
2021/05/28 05:30:15;;;;;;;62.90;32.10;;;10.60;80.10;;;;;;5029139;28;20021;-59
2021/05/28 05:32:41;;;;;;;61.50;31.92;;;10.70;79.50;;;;;;5029154;28;20032;-59
2021/05/28 05:35:07;;;;;;;58.95;31.88;;;10.70;78.90;;;;;;5028863;28;20029;-59
2021/05/28 05:37:33;;;;;;;65.88;33.88;;;10.90;79.10;;;;;;5011475;28;20017;-58
2021/05/28 05:39:58;;;;;;;59.30;31.60;;;11.00;78.60;;;;;;5028886;28;20504;-59
2021/05/28 05:42:24;;;;;;;57.88;31.58;;;11.10;78.30;;;;;;5017384;28;20309;-59
2021/05/28 05:44:49;;;;;;;58.05;31.30;;;11.10;77.80;;;;;;5017302;28;20043;-60
2021/05/28 05:47:15;;;;;;;62.95;31.67;;;11.20;77.50;;;;;;5016140;28;20037;-59
2021/05/28 05:49:40;;;;;;;61.75;31.02;;;11.20;76.90;;;;;;5017657;28;20025;-59
2021/05/28 05:52:06;;;;;;;58.63;31.35;;;11.30;76.50;;;;;;5008468;28;20026;-60
2021/05/28 05:54:33;;;;;;;58.38;30.38;;;11.30;76.20;;;;;;5008787;28;20099;-60
2021/05/28 05:56:58;;;;;;;60.20;29.75;;;11.30;76.30;;;;;;5017725;28;20058;-60
2021/05/28 05:59:28;;;;;;;57.97;31.58;;;11.40;76.20;;;;;;4997432;28;20030;-59
2021/05/28 06:01:53;;;;;;;62.33;31.77;;;11.50;75.60;;;;;;5011939;28;20022;-59
2021/05/28 06:04:19;;;;;;;62.10;31.35;;;11.60;74.80;;;;;;5008651;28;20037;-58
2021/05/28 06:06:44;;;;;;;65.88;33.20;;;11.60;75.00;;;;;;5002433;28;20434;-59
2021/05/28 06:09:10;;;;;;;62.05;31.30;;;11.70;75.00;;;;;;5021738;28;20040;-59
2021/05/28 06:11:38;;;;;;;60.38;30.75;;;11.80;74.20;;;;;;5019228;28;20025;-66
2021/05/28 06:14:04;;;;;;;59.88;30.92;;;11.90;73.90;;;;;;5016387;28;20018;-57
2021/05/28 06:16:30;;;;;;;61.95;31.95;;;12.00;73.50;;;;;;5024057;28;20126;-64
2021/05/28 06:18:55;;;;;;;59.92;31.55;;;11.90;73.30;;;;;;5003559;28;20025;-57
2021/05/28 06:21:21;;;;;;;53.55;31.27;;;11.90;73.10;;;;;;5024552;28;20056;-58
2021/05/28 06:23:47;;;;;;;51.80;29.60;;;12.10;73.00;;;;;;5015895;28;20026;-57
2021/05/28 06:26:12;;;;;;;55.92;31.30;;;12.30;72.30;;;;;;5016258;28;20077;-58
2021/05/28 06:28:38;;;;;;;54.83;31.45;;;12.50;72.00;;;;;;5017069;28;20505;-57
2021/05/28 06:31:03;;;;;;;59.25;30.02;;;12.60;70.40;;;;;;5015825;28;20378;-63
2021/05/28 06:33:29;;;;;;;54.30;30.77;;;12.60;70.10;;;;;;5017653;28;20456;-57
2021/05/28 06:35:54;;;;;;;56.78;28.42;;;12.80;70.00;;;;;;5021178;28;20040;-57
2021/05/28 06:38:21;;;;;;;53.83;29.08;;;12.90;70.10;;;;;;5018850;28;20357;-61
2021/05/28 06:40:47;;;;;;;51.53;30.42;;;13.10;68.90;;;;;;5019644;28;20068;-61
2021/05/28 06:43:12;;;;;;;52.30;30.50;;;13.20;68.30;;;;;;5021200;28;20029;-66
2021/05/28 06:45:38;;;;;;;55.97;29.27;;;13.30;68.50;;;;;;5019302;28;20091;-69
2021/05/28 06:48:04;;;;;;;52.55;28.77;;;13.50;66.50;;;;;;5020626;28;20341;-61
2021/05/28 06:50:31;;;;;;;49.58;27.52;;;13.70;66.30;;;;;;5020398;28;20492;-68
2021/05/28 06:52:57;;;;;;;48.20;26.73;;;13.90;66.00;;;;;;5019311;28;20468;-68
2021/05/28 06:55:23;;;;;;;49.10;26.65;;;14.30;64.90;;;;;;5020450;28;20021;-61
2021/05/28 06:57:48;;;;;;;53.72;27.17;;;14.60;64.30;;;;;;5026285;28;20044;-68
2021/05/28 07:00:14;;;;;;;47.30;26.60;;;14.60;62.70;;;;;;5031703;28;20029;-63
2021/05/28 07:02:40;;;;;;;46.10;27.27;;;14.80;61.60;;;;;;5031563;28;20026;-60
2021/05/28 07:05:06;;;;;;;37.35;23.23;;;14.90;60.90;;;;;;5031479;28;20021;-58
2021/05/28 07:07:32;;;;;;;41.38;23.70;;;15.00;60.80;;;;;;5031372;28;20100;-58
2021/05/28 07:09:59;;;;;;;36.60;22.88;;;15.30;60.50;;;;;;5031540;28;20483;-60
2021/05/28 07:12:24;;;;;;;38.47;21.38;;;15.50;59.60;;;;;;5020477;28;20202;-58
2021/05/28 07:14:50;;;;;;;38.05;22.63;;;15.50;58.70;;;;;;5011484;28;20038;-61
2021/05/28 07:17:16;;;;;;;41.47;24.20;;;15.60;58.90;;;;;;5012234;28;20045;-61
2021/05/28 07:19:42;;;;;;;38.60;23.25;;;15.90;58.80;;;;;;5031459;28;20160;-60
2021/05/28 07:22:07;;;;;;;41.80;23.63;;;16.00;58.30;;;;;;5030889;28;20100;-59
2021/05/28 07:24:33;;;;;;;42.97;23.88;;;16.20;58.30;;;;;;5030784;28;20045;-60
2021/05/28 07:26:58;;;;;;;40.00;23.55;;;16.50;57.50;;;;;;5031423;28;20021;-60
2021/05/28 07:29:24;;;;;;;35.28;21.58;;;16.70;57.10;;;;;;5030216;28;20026;-60
2021/05/28 07:31:50;;;;;;;40.00;22.52;;;17.00;55.90;;;;;;5014529;28;20040;-60
2021/05/28 07:34:15;;;;;;;36.15;20.70;;;17.00;56.20;;;;;;5011328;28;20020;-60
2021/05/28 07:36:41;;;;;;;32.35;18.75;;;17.20;55.30;;;;;;5018258;28;20076;-60
2021/05/28 07:39:06;;;;;;;30.65;18.88;;;17.40;54.90;;;;;;5021541;28;20662;-61
2021/05/28 07:41:32;;;;;;;27.35;18.27;;;17.50;54.50;;;;;;5019360;28;20033;-58
2021/05/28 07:43:58;;;;;;;35.60;20.63;;;17.80;53.30;;;;;;5011422;28;20061;-58
2021/05/28 07:46:23;;;;;;;34.05;20.17;;;17.90;53.70;;;;;;5008906;28;20711;-58
2021/05/28 07:48:49;;;;;;;32.92;19.45;;;18.00;53.30;;;;;;4990484;28;20026;-59
2021/05/28 07:51:15;;;;;;;39.60;20.98;;;18.00;53.40;;;;;;5015008;28;20156;-62
2021/05/28 07:53:41;;;;;;;34.97;21.20;;;18.20;53.00;;;;;;5022082;28;20068;-62
2021/05/28 07:56:07;;;;;;;40.63;21.33;;;18.30;52.30;;;;;;5021033;28;20021;-62
2021/05/28 07:58:33;;;;;;;35.97;20.75;;;18.10;53.20;;;;;;5017518;28;20120;-62
2021/05/28 08:00:59;;;;;;;35.08;18.55;;;18.00;53.80;;;;;;5027776;28;20041;-62
2021/05/28 08:03:24;;;;;;;37.00;20.15;;;17.80;53.00;;;;;;5013417;28;20357;-60
2021/05/28 08:05:51;;;;;;;39.08;21.48;;;17.40;54.70;;;;;;5023116;28;20515;-61
2021/05/28 08:08:17;;;;;;;31.83;21.08;;;17.40;55.40;;;;;;5021420;28;20049;-62
2021/05/28 08:10:43;;;;;;;37.53;20.23;;;17.60;55.20;;;;;;5030638;28;20053;-59
2021/05/28 08:13:09;;;;;;;34.22;20.25;;;17.80;54.90;;;;;;5014308;28;20049;-61
2021/05/28 08:15:34;;;;;;;37.70;21.42;;;18.00;54.50;;;;;;5025352;28;20116;-61
2021/05/28 08:18:00;;;;;;;30.63;19.40;;;18.00;54.20;;;;;;5017907;28;20357;-61
2021/05/28 08:20:25;;;;;;;29.05;18.23;;;17.90;54.20;;;;;;5014852;28;20061;-61
2021/05/28 08:22:53;;;;;;;31.27;18.98;;;18.00;53.30;;;;;;5008890;28;20499;-61
2021/05/28 08:25:18;;;;;;;37.53;20.35;;;18.40;53.50;;;;;;5013586;28;20017;-60
2021/05/28 08:27:44;;;;;;;36.85;19.08;;;18.90;52.30;;;;;;5030500;28;20075;-61
2021/05/28 08:30:10;;;;;;;29.42;17.20;;;19.40;51.50;;;;;;5030327;28;20028;-61
2021/05/28 08:32:35;;;;;;;30.17;18.83;;;19.80;50.40;;;;;;5029850;28;20034;-61
2021/05/28 08:35:01;;;;;;;26.85;17.65;;;19.80;50.00;;;;;;5030316;28;20387;-61
2021/05/28 08:37:27;;;;;;;34.22;17.65;;;20.20;49.10;;;;;;5030941;28;20464;-61
2021/05/28 08:39:52;;;;;;;30.45;17.92;;;20.50;49.30;;;;;;5030230;28;20454;-61
2021/05/28 08:42:21;;;;;;;27.85;16.40;;;20.20;48.50;;;;;;5029904;28;20428;-61
2021/05/28 08:44:50;;;;;;;27.38;17.88;;;20.40;49.00;;;;;;5029525;28;20021;-62
2021/05/28 08:47:16;;;;;;;27.92;18.63;;;19.90;49.10;;;;;;5010043;28;20491;-60
2021/05/28 08:49:48;;;;;;;26.77;17.80;;;19.60;50.10;;;;;;5028800;28;20491;-62
2021/05/28 08:52:14;;;;;;;25.67;16.17;;;19.90;49.50;;;;;;5019364;28;20026;-61
2021/05/28 08:54:40;;;;;;;26.42;16.13;;;19.50;49.70;;;;;;5020369;28;20022;-61
2021/05/28 08:57:06;;;;;;;26.15;16.92;;;20.00;50.00;;;;;;5020065;28;20025;-61
2021/05/28 08:59:31;;;;;;;24.55;17.85;;;20.00;48.70;;;;;;5017163;28;20026;-62
2021/05/28 09:01:57;;;;;;;24.92;15.93;;;20.00;49.60;;;;;;5020276;28;20128;-61
2021/05/28 09:04:22;;;;;;;24.73;17.50;;;20.50;49.00;;;;;;5019308;28;20049;-62
2021/05/28 09:06:48;;;;;;;27.02;17.15;;;21.10;47.70;;;;;;5018328;28;20017;-63
2021/05/28 09:09:19;;;;;;;25.02;16.88;;;20.50;48.30;;;;;;5020281;28;20025;-62
2021/05/28 09:12:00;;;;;;;26.08;14.57;;;20.70;47.50;;;;;;5013425;28;20344;-60
2021/05/28 09:14:38;;;;;;;28.75;16.88;;;21.00;47.60;;;;;;5021138;28;20401;-61
2021/05/28 09:17:05;;;;;;;24.33;16.10;;;21.40;46.50;;;;;;5023553;28;20029;-61
2021/05/28 09:19:31;;;;;;;26.38;15.38;;;21.30;46.40;;;;;;5011806;28;20022;-61
2021/05/28 09:22:01;;;;;;;27.80;16.40;;;21.30;46.70;;;;;;5003323;28;20053;-61
2021/05/28 09:24:36;;;;;;;26.90;16.17;;;21.20;46.00;;;;;;5015140;28;20039;-62
2021/05/28 09:27:27;;;;;;;26.75;15.10;;;20.80;46.70;;;;;;5016435;28;20383;-61
2021/05/28 09:30:02;;;;;;;23.63;15.30;;;21.30;46.30;;;;;;5022155;28;20480;-62
2021/05/28 09:32:28;;;;;;;25.65;15.27;;;21.70;44.90;;;;;;5011089;28;20021;-62
2021/05/28 09:34:54;;;;;;;23.95;15.82;;;22.00;44.10;;;;;;5016364;28;20033;-61
2021/05/28 09:37:19;;;;;;;29.23;16.75;;;22.20;43.30;;;;;;5017476;28;20033;-62
2021/05/28 09:39:45;;;;;;;25.02;14.43;;;22.30;43.40;;;;;;5009416;28;20042;-61
2021/05/28 09:42:10;;;;;;;30.13;16.83;;;22.60;42.70;;;;;;5021424;28;20025;-61
2021/05/28 09:44:36;;;;;;;27.35;17.13;;;22.90;41.30;;;;;;5013763;28;20484;-62
2021/05/28 09:47:04;;;;;;;22.83;14.50;;;22.80;40.60;;;;;;5014953;28;20026;-61
2021/05/28 09:49:46;;;;;;;26.60;14.65;;;23.00;40.70;;;;;;5021143;28;20392;-62
2021/05/28 09:52:18;;;;;;;25.70;13.88;;;23.40;40.00;;;;;;5008525;28;20033;-62
2021/05/28 09:55:06;;;;;;;22.23;14.32;;;23.00;39.50;;;;;;5017867;28;20018;-62
2021/05/28 09:57:42;;;;;;;20.20;12.35;;;22.10;40.30;;;;;;5018375;28;20080;-63
2021/05/28 10:00:47;;;;;;;18.95;11.98;;;21.80;41.00;;;;;;5013887;28;20037;-62
2021/05/28 10:03:19;;;;;;;18.15;11.50;;;21.80;41.30;;;;;;4912929;29;20483;-63
2021/05/28 10:05:52;;;;;;;19.30;12.50;;;21.80;40.80;;;;;;4913167;29;20115;-62
2021/05/28 10:08:18;;;;;;;21.40;12.68;;;21.00;41.60;;;;;;4968205;28;20040;-61
2021/05/28 10:10:45;;;;;;;19.17;12.13;;;21.30;42.00;;;;;;5015817;28;20021;-64
2021/05/28 10:13:12;;;;;;;23.25;12.52;;;22.20;41.00;;;;;;5014170;28;20022;-65
2021/05/28 10:15:46;;;;;;;20.67;11.30;;;23.10;39.50;;;;;;5020079;28;20017;-60
2021/05/28 10:18:24;;;;;;;21.10;13.23;;;23.90;38.30;;;;;;5009223;28;20026;-60
2021/05/28 10:20:53;;;;;;;24.33;14.50;;;24.40;37.30;;;;;;5003065;28;20114;-63
2021/05/28 10:23:19;;;;;;;21.63;14.02;;;24.90;36.50;;;;;;5014775;28;20026;-63
2021/05/28 10:25:46;;;;;;;30.20;15.95;;;24.80;36.10;;;;;;5012100;28;20365;-62
2021/05/28 10:28:16;;;;;;;25.13;16.63;;;24.60;36.20;;;;;;5005252;28;20453;-62
2021/05/28 10:30:43;;;;;;;26.58;16.20;;;23.90;37.00;;;;;;4999550;28;20104;-62
2021/05/28 10:33:28;;;;;;;31.05;15.13;;;23.40;37.10;;;;;;5014478;28;20022;-62
2021/05/28 10:35:56;;;;;;;22.98;13.82;;;22.80;38.00;;;;;;5006883;28;20099;-63
2021/05/28 10:38:30;;;;;;;13.88;8.60;;;22.60;38.30;;;;;;5020728;28;20022;-63
2021/05/28 10:40:59;;;;;;;16.30;10.00;;;22.00;38.30;;;;;;5015047;28;20056;-62
2021/05/28 10:43:26;;;;;;;21.17;12.60;;;22.10;38.10;;;;;;5000032;28;20029;-61
2021/05/28 10:45:56;;;;;;;20.15;12.93;;;22.30;38.40;;;;;;5006977;28;20034;-61
2021/05/28 10:48:40;;;;;;;15.98;10.48;;;22.00;38.90;;;;;;5006315;28;20025;-61
2021/05/28 10:51:09;;;;;;;12.40;7.00;;;21.80;38.10;;;;;;5013250;28;20088;-62
2021/05/28 10:53:35;;;;;;;14.32;8.18;;;22.00;37.90;;;;;;5020965;28;20121;-61
2021/05/28 10:56:08;;;;;;;14.70;8.48;;;22.20;38.20;;;;;;5007239;28;20480;-62
2021/05/28 10:58:56;;;;;;;13.95;7.55;;;22.20;37.60;;;;;;5016943;28;20238;-62
2021/05/28 11:01:44;;;;;;;13.02;8.13;;;22.80;37.20;;;;;;5017987;28;20030;-61
2021/05/28 11:04:11;;;;;;;13.30;7.35;;;22.50;37.60;;;;;;5011518;28;20064;-61
2021/05/28 11:07:03;;;;;;;12.85;7.55;;;22.50;37.60;;;;;;5019345;28;20464;-62
2021/05/28 11:09:48;;;;;;;10.27;6.88;;;22.50;36.60;;;;;;5006397;28;20030;-61
2021/05/28 11:12:26;;;;;;;11.20;7.13;;;22.00;37.10;;;;;;5023452;28;20029;-61
2021/05/28 11:14:57;;;;;;;11.80;7.05;;;21.80;37.30;;;;;;5010556;28;20029;-61
2021/05/28 11:17:23;;;;;;;;;;;21.50;37.80;;;;;;5013998;28;20024;-61
2021/05/28 11:19:50;;;;;;;9.40;6.57;;;21.60;37.80;;;;;;5024434;28;19909;-62
2021/05/28 11:22:45;;;;;;;11.38;6.03;;;22.20;36.90;;;;;;5025013;28;20108;-62
2021/05/28 11:25:23;;;;;;;10.40;5.68;;;21.60;37.20;;;;;;5001203;28;20042;-62
2021/05/28 11:27:58;;;;;;;11.85;6.15;;;21.60;37.40;;;;;;5024065;28;20029;-62
2021/05/28 11:30:36;;;;;;;6.97;5.20;;;21.50;36.80;;;;;;5018531;28;20053;-62
2021/05/28 11:33:02;;;;;;;10.50;5.55;;;21.90;37.10;;;;;;5003783;28;20032;-61
2021/05/28 11:35:29;;;;;;;8.55;5.53;;;22.50;36.30;;;;;;5027477;28;20022;-66
2021/05/28 11:38:00;;;;;;;9.75;5.45;;;22.70;35.50;;;;;;5017421;28;20513;-63
2021/05/28 11:40:26;;;;;;;8.57;5.10;;;22.90;35.60;;;;;;5010218;28;20091;-63
2021/05/28 11:42:52;;;;;;;11.05;5.60;;;22.80;35.30;;;;;;5026741;28;20072;-62
2021/05/28 11:45:19;;;;;;;13.73;5.35;;;23.20;35.50;;;;;;5031187;28;20044;-63
2021/05/28 11:47:45;;;;;;;6.15;4.47;;;23.90;34.20;;;;;;5031401;28;20025;-63
2021/05/28 11:50:17;;;;;;;7.25;5.50;;;24.30;34.00;;;;;;5031613;28;20064;-64
2021/05/28 11:53:04;;;;;;;9.50;5.70;;;24.30;33.00;;;;;;5031642;28;20025;-63
2021/05/28 11:55:30;;;;;;;7.72;5.55;;;23.30;33.70;;;;;;5031620;28;20472;-63
2021/05/28 11:58:00;;;;;;;7.45;4.53;;;22.70;33.90;;;;;;5021444;28;20057;-57
2021/05/28 12:00:27;;;;;;;7.03;4.70;;;22.70;34.20;;;;;;5011973;28;20119;-61
2021/05/28 12:02:56;;;;;;;9.15;4.88;;;22.60;34.20;;;;;;5010804;28;20029;-61
2021/05/28 12:05:22;;;;;;;9.00;4.95;;;22.80;34.50;;;;;;5019173;28;20084;-62
2021/05/28 12:07:48;;;;;;;12.95;4.80;;;23.30;34.10;;;;;;5021143;28;20026;-62
2021/05/28 12:10:14;;;;;;;8.18;5.45;;;23.30;34.10;;;;;;5004972;28;20047;-62
2021/05/28 12:12:56;;;;;;;10.02;4.93;;;23.30;33.70;;;;;;5030690;28;20048;-62
2021/05/28 12:15:29;;;;;;;8.55;4.90;;;23.90;33.60;;;;;;5030644;28;20049;-62
2021/05/28 12:17:55;;;;;;;10.10;6.53;;;24.40;32.80;;;;;;5016865;28;20024;-63
2021/05/28 12:20:26;;;;;;;7.60;4.80;;;24.60;32.50;;;;;;5020493;28;20130;-62
2021/05/28 12:22:55;;;;;;;6.45;4.68;;;24.60;32.10;;;;;;5030404;28;20104;-63
2021/05/28 12:25:21;;;;;;;6.50;4.57;;;24.60;32.30;;;;;;5020501;28;20029;-63
2021/05/28 12:27:46;;;;;;;9.40;6.18;;;24.70;32.10;;;;;;5030401;28;20040;-63
2021/05/28 12:30:15;;;;;;;11.02;6.63;;;24.90;31.70;;;;;;5029953;28;20515;-63
2021/05/28 12:32:40;;;;;;;11.60;6.28;;;24.70;32.10;;;;;;5029744;28;20025;-62
2021/05/28 12:35:06;;;;;;;10.23;6.80;;;24.90;31.60;;;;;;5012307;28;20104;-63
2021/05/28 12:37:32;;;;;;;11.15;5.60;;;24.80;31.80;;;;;;5012311;28;20060;-65